sensor_id;sensor_type;location;lat;lon;timestamp;P1;durP1;ratioP1;P2;durP2;ratioP2
58470;SDS011;44258;51.288;12.068;2022-10-16T00:01:42;0.63;;;0.52;;
58470;SDS011;44258;51.288;12.068;2022-10-16T00:04:09;1.38;;;0.60;;
58470;SDS011;44258;51.288;12.068;2022-10-16T00:06:36;0.90;;;0.77;;
58470;SDS011;44258;51.288;12.068;2022-10-16T00:09:03;2.85;;;0.85;;
58470;SDS011;44258;51.288;12.068;2022-10-16T00:11:32;1.05;;;0.65;;
58470;SDS011;44258;51.288;12.068;2022-10-16T00:14:03;1.30;;;0.80;;
58470;SDS011;44258;51.288;12.068;2022-10-16T00:16:32;1.85;;;0.80;;
58470;SDS011;44258;51.288;12.068;2022-10-16T00:19:00;0.47;;;0.40;;
58470;SDS011;44258;51.288;12.068;2022-10-16T00:21:27;1.10;;;0.57;;
58470;SDS011;44258;51.288;12.068;2022-10-16T00:23:56;2.30;;;0.70;;
58470;SDS011;44258;51.288;12.068;2022-10-16T00:26:25;1.63;;;1.00;;
58470;SDS011;44258;51.288;12.068;2022-10-16T00:28:53;1.85;;;0.90;;
58470;SDS011;44258;51.288;12.068;2022-10-16T00:31:21;1.48;;;0.82;;
58470;SDS011;44258;51.288;12.068;2022-10-16T00:33:49;1.00;;;0.60;;
58470;SDS011;44258;51.288;12.068;2022-10-16T00:36:16;2.22;;;1.00;;
58470;SDS011;44258;51.288;12.068;2022-10-16T00:38:44;2.95;;;0.85;;
58470;SDS011;44258;51.288;12.068;2022-10-16T00:41:12;1.30;;;0.90;;
58470;SDS011;44258;51.288;12.068;2022-10-16T00:43:41;2.05;;;1.05;;
58470;SDS011;44258;51.288;12.068;2022-10-16T00:46:15;1.25;;;0.70;;
58470;SDS011;44258;51.288;12.068;2022-10-16T00:51:15;2.88;;;0.93;;
58470;SDS011;44258;51.288;12.068;2022-10-16T00:53:43;1.92;;;0.95;;
58470;SDS011;44258;51.288;12.068;2022-10-16T00:56:11;1.67;;;0.80;;
58470;SDS011;44258;51.288;12.068;2022-10-16T00:58:37;1.90;;;0.80;;
58470;SDS011;44258;51.288;12.068;2022-10-16T01:01:04;1.63;;;0.65;;
58470;SDS011;44258;51.288;12.068;2022-10-16T01:03:31;1.42;;;0.80;;
58470;SDS011;44258;51.288;12.068;2022-10-16T01:06:05;1.40;;;0.98;;
58470;SDS011;44258;51.288;12.068;2022-10-16T01:08:45;1.83;;;1.10;;
58470;SDS011;44258;51.288;12.068;2022-10-16T01:13:53;1.08;;;0.95;;
58470;SDS011;44258;51.288;12.068;2022-10-16T01:16:25;1.70;;;0.90;;
58470;SDS011;44258;51.288;12.068;2022-10-16T01:19:00;1.17;;;0.70;;
58470;SDS011;44258;51.288;12.068;2022-10-16T01:21:37;4.57;;;0.90;;
58470;SDS011;44258;51.288;12.068;2022-10-16T01:24:07;1.65;;;0.85;;
58470;SDS011;44258;51.288;12.068;2022-10-16T01:26:44;2.58;;;0.98;;
58470;SDS011;44258;51.288;12.068;2022-10-16T01:29:21;1.45;;;0.95;;
58470;SDS011;44258;51.288;12.068;2022-10-16T01:31:53;2.83;;;0.77;;
58470;SDS011;44258;51.288;12.068;2022-10-16T01:34:25;1.92;;;0.88;;
58470;SDS011;44258;51.288;12.068;2022-10-16T01:37:00;2.03;;;0.68;;
58470;SDS011;44258;51.288;12.068;2022-10-16T01:39:32;1.00;;;0.73;;
58470;SDS011;44258;51.288;12.068;2022-10-16T01:42:03;1.63;;;1.00;;
58470;SDS011;44258;51.288;12.068;2022-10-16T01:44:35;1.63;;;0.95;;
58470;SDS011;44258;51.288;12.068;2022-10-16T01:47:05;1.80;;;0.93;;
58470;SDS011;44258;51.288;12.068;2022-10-16T01:49:35;1.63;;;1.02;;
58470;SDS011;44258;51.288;12.068;2022-10-16T01:52:05;1.83;;;1.23;;
58470;SDS011;44258;51.288;12.068;2022-10-16T01:54:35;2.63;;;1.00;;
58470;SDS011;44258;51.288;12.068;2022-10-16T01:57:05;1.83;;;1.00;;
58470;SDS011;44258;51.288;12.068;2022-10-16T01:59:37;1.55;;;0.90;;
58470;SDS011;44258;51.288;12.068;2022-10-16T02:02:09;2.08;;;1.00;;
58470;SDS011;44258;51.288;12.068;2022-10-16T02:04:38;3.53;;;1.15;;
58470;SDS011;44258;51.288;12.068;2022-10-16T02:07:08;1.52;;;1.00;;
58470;SDS011;44258;51.288;12.068;2022-10-16T02:09:36;1.55;;;0.80;;
58470;SDS011;44258;51.288;12.068;2022-10-16T02:12:06;1.80;;;0.98;;
58470;SDS011;44258;51.288;12.068;2022-10-16T02:14:39;2.67;;;1.10;;
58470;SDS011;44258;51.288;12.068;2022-10-16T02:17:10;1.08;;;0.85;;
58470;SDS011;44258;51.288;12.068;2022-10-16T02:19:38;1.20;;;0.77;;
58470;SDS011;44258;51.288;12.068;2022-10-16T02:22:05;1.40;;;0.90;;
58470;SDS011;44258;51.288;12.068;2022-10-16T02:24:37;3.25;;;1.02;;
58470;SDS011;44258;51.288;12.068;2022-10-16T02:27:10;1.60;;;1.05;;
58470;SDS011;44258;51.288;12.068;2022-10-16T02:29:42;1.20;;;0.90;;
58470;SDS011;44258;51.288;12.068;2022-10-16T02:32:15;1.92;;;0.93;;
58470;SDS011;44258;51.288;12.068;2022-10-16T02:34:46;1.00;;;0.90;;
58470;SDS011;44258;51.288;12.068;2022-10-16T02:37:15;2.63;;;0.90;;
58470;SDS011;44258;51.288;12.068;2022-10-16T02:39:43;2.80;;;0.82;;
58470;SDS011;44258;51.288;12.068;2022-10-16T02:42:11;1.75;;;0.98;;
58470;SDS011;44258;51.288;12.068;2022-10-16T02:44:38;1.40;;;1.02;;
58470;SDS011;44258;51.288;12.068;2022-10-16T02:47:06;2.63;;;1.17;;
58470;SDS011;44258;51.288;12.068;2022-10-16T02:49:33;2.55;;;0.80;;
58470;SDS011;44258;51.288;12.068;2022-10-16T02:51:59;2.63;;;0.80;;
58470;SDS011;44258;51.288;12.068;2022-10-16T02:54:26;1.33;;;0.93;;
58470;SDS011;44258;51.288;12.068;2022-10-16T02:56:53;2.22;;;1.10;;
58470;SDS011;44258;51.288;12.068;2022-10-16T02:59:20;2.00;;;0.93;;
58470;SDS011;44258;51.288;12.068;2022-10-16T03:01:46;2.28;;;0.90;;
58470;SDS011;44258;51.288;12.068;2022-10-16T03:04:14;1.90;;;1.08;;
58470;SDS011;44258;51.288;12.068;2022-10-16T03:06:41;4.78;;;1.02;;
58470;SDS011;44258;51.288;12.068;2022-10-16T03:09:08;1.27;;;1.00;;
58470;SDS011;44258;51.288;12.068;2022-10-16T03:11:34;0.75;;;0.70;;
58470;SDS011;44258;51.288;12.068;2022-10-16T03:14:01;1.33;;;1.00;;
58470;SDS011;44258;51.288;12.068;2022-10-16T03:16:28;1.70;;;1.05;;
58470;SDS011;44258;51.288;12.068;2022-10-16T03:18:54;1.55;;;0.98;;
58470;SDS011;44258;51.288;12.068;2022-10-16T03:21:22;2.70;;;0.85;;
58470;SDS011;44258;51.288;12.068;2022-10-16T03:23:49;2.05;;;0.98;;
58470;SDS011;44258;51.288;12.068;2022-10-16T03:26:16;1.10;;;0.85;;
58470;SDS011;44258;51.288;12.068;2022-10-16T03:28:42;1.77;;;0.80;;
58470;SDS011;44258;51.288;12.068;2022-10-16T03:31:09;1.02;;;0.90;;
58470;SDS011;44258;51.288;12.068;2022-10-16T03:33:35;2.47;;;1.30;;
58470;SDS011;44258;51.288;12.068;2022-10-16T03:36:02;3.20;;;1.13;;
58470;SDS011;44258;51.288;12.068;2022-10-16T03:38:31;1.60;;;1.10;;
58470;SDS011;44258;51.288;12.068;2022-10-16T03:40:57;2.03;;;1.10;;
58470;SDS011;44258;51.288;12.068;2022-10-16T03:43:24;1.70;;;0.98;;
58470;SDS011;44258;51.288;12.068;2022-10-16T03:45:51;1.70;;;1.02;;
58470;SDS011;44258;51.288;12.068;2022-10-16T03:48:17;2.15;;;1.20;;
58470;SDS011;44258;51.288;12.068;2022-10-16T03:50:44;2.50;;;1.08;;
58470;SDS011;44258;51.288;12.068;2022-10-16T03:53:11;1.02;;;0.93;;
58470;SDS011;44258;51.288;12.068;2022-10-16T03:55:40;2.60;;;1.10;;
58470;SDS011;44258;51.288;12.068;2022-10-16T03:58:07;2.20;;;1.20;;
58470;SDS011;44258;51.288;12.068;2022-10-16T04:00:34;3.35;;;1.25;;
58470;SDS011;44258;51.288;12.068;2022-10-16T04:03:00;2.67;;;1.27;;
58470;SDS011;44258;51.288;12.068;2022-10-16T04:05:27;1.95;;;1.17;;
58470;SDS011;44258;51.288;12.068;2022-10-16T04:07:53;1.25;;;0.90;;
58470;SDS011;44258;51.288;12.068;2022-10-16T04:10:21;2.47;;;1.20;;
58470;SDS011;44258;51.288;12.068;2022-10-16T04:12:49;1.70;;;1.15;;
58470;SDS011;44258;51.288;12.068;2022-10-16T04:15:15;2.30;;;1.33;;
58470;SDS011;44258;51.288;12.068;2022-10-16T04:17:42;2.28;;;1.30;;
58470;SDS011;44258;51.288;12.068;2022-10-16T04:20:09;2.47;;;1.50;;
58470;SDS011;44258;51.288;12.068;2022-10-16T04:22:35;1.75;;;1.25;;
58470;SDS011;44258;51.288;12.068;2022-10-16T04:25:02;3.60;;;1.33;;
58470;SDS011;44258;51.288;12.068;2022-10-16T04:27:29;1.60;;;1.15;;
58470;SDS011;44258;51.288;12.068;2022-10-16T04:29:57;1.13;;;0.93;;
58470;SDS011;44258;51.288;12.068;2022-10-16T04:32:24;2.28;;;1.30;;
58470;SDS011;44258;51.288;12.068;2022-10-16T04:34:51;1.20;;;1.05;;
58470;SDS011;44258;51.288;12.068;2022-10-16T04:37:18;5.03;;;1.50;;
58470;SDS011;44258;51.288;12.068;2022-10-16T04:39:45;2.55;;;1.45;;
58470;SDS011;44258;51.288;12.068;2022-10-16T04:42:11;1.85;;;1.20;;
58470;SDS011;44258;51.288;12.068;2022-10-16T04:44:38;1.40;;;0.90;;
58470;SDS011;44258;51.288;12.068;2022-10-16T04:47:06;2.25;;;1.20;;
58470;SDS011;44258;51.288;12.068;2022-10-16T04:49:33;2.05;;;1.23;;
58470;SDS011;44258;51.288;12.068;2022-10-16T04:51:59;3.33;;;1.40;;
58470;SDS011;44258;51.288;12.068;2022-10-16T04:54:26;2.88;;;1.40;;
58470;SDS011;44258;51.288;12.068;2022-10-16T04:56:53;1.67;;;1.05;;
58470;SDS011;44258;51.288;12.068;2022-10-16T04:59:19;3.28;;;1.40;;
58470;SDS011;44258;51.288;12.068;2022-10-16T05:01:46;3.42;;;1.50;;
58470;SDS011;44258;51.288;12.068;2022-10-16T05:04:14;2.45;;;1.20;;
58470;SDS011;44258;51.288;12.068;2022-10-16T05:06:41;2.45;;;1.20;;
58470;SDS011;44258;51.288;12.068;2022-10-16T05:09:07;3.05;;;1.50;;
58470;SDS011;44258;51.288;12.068;2022-10-16T05:11:34;1.45;;;1.27;;
58470;SDS011;44258;51.288;12.068;2022-10-16T05:14:01;1.88;;;1.23;;
58470;SDS011;44258;51.288;12.068;2022-10-16T05:16:29;2.40;;;1.40;;
58470;SDS011;44258;51.288;12.068;2022-10-16T05:18:56;2.45;;;1.25;;
58470;SDS011;44258;51.288;12.068;2022-10-16T05:21:24;2.00;;;1.20;;
58470;SDS011;44258;51.288;12.068;2022-10-16T05:23:52;2.10;;;1.30;;
58470;SDS011;44258;51.288;12.068;2022-10-16T05:26:19;2.33;;;1.15;;
58470;SDS011;44258;51.288;12.068;2022-10-16T05:28:46;2.10;;;1.48;;
58470;SDS011;44258;51.288;12.068;2022-10-16T05:31:12;2.33;;;1.30;;
58470;SDS011;44258;51.288;12.068;2022-10-16T05:33:39;2.50;;;1.30;;
58470;SDS011;44258;51.288;12.068;2022-10-16T05:36:06;2.03;;;1.17;;
58470;SDS011;44258;51.288;12.068;2022-10-16T05:38:36;1.80;;;1.20;;
58470;SDS011;44258;51.288;12.068;2022-10-16T05:41:03;4.40;;;1.20;;
58470;SDS011;44258;51.288;12.068;2022-10-16T05:43:31;3.05;;;1.63;;
58470;SDS011;44258;51.288;12.068;2022-10-16T05:45:59;2.00;;;1.38;;
58470;SDS011;44258;51.288;12.068;2022-10-16T05:48:27;2.05;;;1.40;;
58470;SDS011;44258;51.288;12.068;2022-10-16T05:50:57;2.75;;;1.38;;
58470;SDS011;44258;51.288;12.068;2022-10-16T05:53:24;2.83;;;1.40;;
58470;SDS011;44258;51.288;12.068;2022-10-16T05:55:54;3.13;;;1.33;;
58470;SDS011;44258;51.288;12.068;2022-10-16T05:58:21;2.65;;;1.35;;
58470;SDS011;44258;51.288;12.068;2022-10-16T06:00:55;2.38;;;1.33;;
58470;SDS011;44258;51.288;12.068;2022-10-16T06:03:22;2.30;;;1.60;;
58470;SDS011;44258;51.288;12.068;2022-10-16T06:05:49;3.22;;;1.63;;
58470;SDS011;44258;51.288;12.068;2022-10-16T06:08:16;2.95;;;1.50;;
58470;SDS011;44258;51.288;12.068;2022-10-16T06:10:43;2.60;;;1.52;;
58470;SDS011;44258;51.288;12.068;2022-10-16T06:13:12;2.38;;;1.25;;
58470;SDS011;44258;51.288;12.068;2022-10-16T06:15:39;2.25;;;1.50;;
58470;SDS011;44258;51.288;12.068;2022-10-16T06:18:08;2.80;;;1.35;;
58470;SDS011;44258;51.288;12.068;2022-10-16T06:20:34;4.78;;;1.60;;
58470;SDS011;44258;51.288;12.068;2022-10-16T06:23:01;4.07;;;1.60;;
58470;SDS011;44258;51.288;12.068;2022-10-16T06:25:29;3.15;;;1.10;;
58470;SDS011;44258;51.288;12.068;2022-10-16T06:27:56;2.90;;;1.55;;
58470;SDS011;44258;51.288;12.068;2022-10-16T06:30:24;3.92;;;1.70;;
58470;SDS011;44258;51.288;12.068;2022-10-16T06:32:50;1.95;;;1.30;;
58470;SDS011;44258;51.288;12.068;2022-10-16T06:35:17;3.15;;;1.45;;
58470;SDS011;44258;51.288;12.068;2022-10-16T06:37:44;2.47;;;1.40;;
58470;SDS011;44258;51.288;12.068;2022-10-16T06:40:11;3.47;;;1.60;;
58470;SDS011;44258;51.288;12.068;2022-10-16T06:42:39;3.75;;;1.38;;
58470;SDS011;44258;51.288;12.068;2022-10-16T06:45:06;4.22;;;1.77;;
58470;SDS011;44258;51.288;12.068;2022-10-16T06:47:35;3.85;;;1.58;;
58470;SDS011;44258;51.288;12.068;2022-10-16T06:50:01;1.95;;;1.38;;
58470;SDS011;44258;51.288;12.068;2022-10-16T06:52:28;3.65;;;1.50;;
58470;SDS011;44258;51.288;12.068;2022-10-16T06:54:55;2.10;;;1.45;;
58470;SDS011;44258;51.288;12.068;2022-10-16T06:57:22;3.10;;;1.50;;
58470;SDS011;44258;51.288;12.068;2022-10-16T06:59:48;4.22;;;1.75;;
58470;SDS011;44258;51.288;12.068;2022-10-16T07:02:15;1.90;;;1.42;;
58470;SDS011;44258;51.288;12.068;2022-10-16T07:04:43;2.35;;;1.63;;
58470;SDS011;44258;51.288;12.068;2022-10-16T07:07:10;4.28;;;1.90;;
58470;SDS011;44258;51.288;12.068;2022-10-16T07:09:36;3.55;;;1.67;;
58470;SDS011;44258;51.288;12.068;2022-10-16T07:12:03;2.80;;;1.50;;
58470;SDS011;44258;51.288;12.068;2022-10-16T07:14:30;5.18;;;1.65;;
58470;SDS011;44258;51.288;12.068;2022-10-16T07:16:57;2.65;;;1.50;;
58470;SDS011;44258;51.288;12.068;2022-10-16T07:19:23;3.10;;;1.48;;
58470;SDS011;44258;51.288;12.068;2022-10-16T07:21:52;1.80;;;1.27;;
58470;SDS011;44258;51.288;12.068;2022-10-16T07:24:18;2.88;;;1.20;;
58470;SDS011;44258;51.288;12.068;2022-10-16T07:26:45;1.85;;;1.15;;
58470;SDS011;44258;51.288;12.068;2022-10-16T07:29:12;2.53;;;1.30;;
58470;SDS011;44258;51.288;12.068;2022-10-16T07:31:41;2.20;;;1.13;;
58470;SDS011;44258;51.288;12.068;2022-10-16T07:34:08;3.30;;;1.40;;
58470;SDS011;44258;51.288;12.068;2022-10-16T07:36:35;2.15;;;1.27;;
58470;SDS011;44258;51.288;12.068;2022-10-16T07:39:03;2.13;;;1.20;;
58470;SDS011;44258;51.288;12.068;2022-10-16T07:41:30;2.35;;;1.40;;
58470;SDS011;44258;51.288;12.068;2022-10-16T07:43:58;1.83;;;1.08;;
58470;SDS011;44258;51.288;12.068;2022-10-16T07:46:25;2.85;;;1.30;;
58470;SDS011;44258;51.288;12.068;2022-10-16T07:48:53;0.90;;;0.77;;
58470;SDS011;44258;51.288;12.068;2022-10-16T07:51:21;1.38;;;0.80;;
58470;SDS011;44258;51.288;12.068;2022-10-16T07:53:49;1.02;;;0.80;;
58470;SDS011;44258;51.288;12.068;2022-10-16T07:56:18;1.63;;;0.82;;
58470;SDS011;44258;51.288;12.068;2022-10-16T07:58:46;0.88;;;0.70;;
58470;SDS011;44258;51.288;12.068;2022-10-16T08:01:15;0.90;;;0.55;;
58470;SDS011;44258;51.288;12.068;2022-10-16T08:03:42;2.30;;;0.80;;
58470;SDS011;44258;51.288;12.068;2022-10-16T08:06:09;2.58;;;0.82;;
58470;SDS011;44258;51.288;12.068;2022-10-16T08:08:36;1.05;;;0.60;;
58470;SDS011;44258;51.288;12.068;2022-10-16T08:11:03;1.02;;;0.60;;
58470;SDS011;44258;51.288;12.068;2022-10-16T08:13:31;0.60;;;0.60;;
58470;SDS011;44258;51.288;12.068;2022-10-16T08:15:58;2.10;;;0.90;;
58470;SDS011;44258;51.288;12.068;2022-10-16T08:18:26;1.30;;;0.82;;
58470;SDS011;44258;51.288;12.068;2022-10-16T08:20:56;0.73;;;0.73;;
58470;SDS011;44258;51.288;12.068;2022-10-16T08:23:24;0.88;;;0.68;;
58470;SDS011;44258;51.288;12.068;2022-10-16T08:25:51;0.85;;;0.85;;
58470;SDS011;44258;51.288;12.068;2022-10-16T08:28:18;1.33;;;0.98;;
58470;SDS011;44258;51.288;12.068;2022-10-16T08:30:46;2.45;;;1.13;;
58470;SDS011;44258;51.288;12.068;2022-10-16T08:33:13;1.83;;;1.00;;
58470;SDS011;44258;51.288;12.068;2022-10-16T08:35:40;1.67;;;1.00;;
58470;SDS011;44258;51.288;12.068;2022-10-16T08:38:07;1.50;;;0.85;;
58470;SDS011;44258;51.288;12.068;2022-10-16T08:40:34;0.75;;;0.65;;
58470;SDS011;44258;51.288;12.068;2022-10-16T08:46:05;0.57;;;0.57;;
58470;SDS011;44258;51.288;12.068;2022-10-16T08:48:43;1.55;;;0.85;;
58470;SDS011;44258;51.288;12.068;2022-10-16T08:51:11;1.30;;;0.90;;
58470;SDS011;44258;51.288;12.068;2022-10-16T08:53:46;1.55;;;0.75;;
58470;SDS011;44258;51.288;12.068;2022-10-16T08:56:18;0.90;;;0.80;;
58470;SDS011;44258;51.288;12.068;2022-10-16T08:58:44;0.50;;;0.47;;
58470;SDS011;44258;51.288;12.068;2022-10-16T09:01:14;1.58;;;0.60;;
58470;SDS011;44258;51.288;12.068;2022-10-16T09:03:51;1.02;;;0.52;;
58470;SDS011;44258;51.288;12.068;2022-10-16T09:06:34;1.17;;;0.55;;
58470;SDS011;44258;51.288;12.068;2022-10-16T09:12:15;3.38;;;0.88;;
58470;SDS011;44258;51.288;12.068;2022-10-16T09:14:56;0.70;;;0.50;;
58470;SDS011;44258;51.288;12.068;2022-10-16T09:17:39;1.23;;;0.68;;
58470;SDS011;44258;51.288;12.068;2022-10-16T09:20:20;1.13;;;0.60;;
58470;SDS011;44258;51.288;12.068;2022-10-16T09:22:56;0.95;;;0.57;;
58470;SDS011;44258;51.288;12.068;2022-10-16T09:25:39;1.80;;;0.60;;
58470;SDS011;44258;51.288;12.068;2022-10-16T09:28:07;0.93;;;0.60;;
58470;SDS011;44258;51.288;12.068;2022-10-16T09:30:35;0.60;;;0.50;;
58470;SDS011;44258;51.288;12.068;2022-10-16T09:33:05;1.13;;;0.30;;
58470;SDS011;44258;51.288;12.068;2022-10-16T09:35:35;1.17;;;0.70;;
58470;SDS011;44258;51.288;12.068;2022-10-16T09:38:04;0.55;;;0.50;;
58470;SDS011;44258;51.288;12.068;2022-10-16T09:40:33;1.27;;;0.50;;
58470;SDS011;44258;51.288;12.068;2022-10-16T09:43:03;1.02;;;0.50;;
58470;SDS011;44258;51.288;12.068;2022-10-16T09:45:40;0.77;;;0.45;;
58470;SDS011;44258;51.288;12.068;2022-10-16T09:48:11;3.47;;;0.85;;
58470;SDS011;44258;51.288;12.068;2022-10-16T09:50:39;0.80;;;0.52;;
58470;SDS011;44258;51.288;12.068;2022-10-16T09:53:08;1.25;;;0.80;;
58470;SDS011;44258;51.288;12.068;2022-10-16T09:55:47;1.13;;;0.68;;
58470;SDS011;44258;51.288;12.068;2022-10-16T09:58:14;2.17;;;0.82;;
58470;SDS011;44258;51.288;12.068;2022-10-16T10:00:41;1.00;;;0.60;;
58470;SDS011;44258;51.288;12.068;2022-10-16T10:03:32;1.15;;;0.80;;
58470;SDS011;44258;51.288;12.068;2022-10-16T10:06:05;1.02;;;0.70;;
58470;SDS011;44258;51.288;12.068;2022-10-16T10:08:41;1.13;;;0.80;;
58470;SDS011;44258;51.288;12.068;2022-10-16T10:11:18;2.83;;;0.98;;
58470;SDS011;44258;51.288;12.068;2022-10-16T10:13:44;1.92;;;0.77;;
58470;SDS011;44258;51.288;12.068;2022-10-16T10:16:11;2.08;;;0.90;;
58470;SDS011;44258;51.288;12.068;2022-10-16T10:18:39;2.05;;;0.98;;
58470;SDS011;44258;51.288;12.068;2022-10-16T10:21:12;1.15;;;0.80;;
58470;SDS011;44258;51.288;12.068;2022-10-16T10:23:43;1.52;;;0.80;;
58470;SDS011;44258;51.288;12.068;2022-10-16T10:26:10;0.80;;;0.75;;
58470;SDS011;44258;51.288;12.068;2022-10-16T10:28:44;2.67;;;1.02;;
58470;SDS011;44258;51.288;12.068;2022-10-16T10:31:22;1.23;;;0.98;;
58470;SDS011;44258;51.288;12.068;2022-10-16T10:33:57;1.63;;;1.15;;
58470;SDS011;44258;51.288;12.068;2022-10-16T10:36:47;2.10;;;1.20;;
58470;SDS011;44258;51.288;12.068;2022-10-16T10:39:22;2.10;;;1.00;;
58470;SDS011;44258;51.288;12.068;2022-10-16T10:44:50;1.38;;;1.10;;
58470;SDS011;44258;51.288;12.068;2022-10-16T10:47:38;1.60;;;1.05;;
58470;SDS011;44258;51.288;12.068;2022-10-16T10:50:18;2.20;;;1.33;;
58470;SDS011;44258;51.288;12.068;2022-10-16T10:52:57;2.17;;;1.10;;
58470;SDS011;44258;51.288;12.068;2022-10-16T10:55:28;2.10;;;1.40;;
58470;SDS011;44258;51.288;12.068;2022-10-16T10:58:10;2.20;;;1.13;;
58470;SDS011;44258;51.288;12.068;2022-10-16T11:00:56;2.05;;;1.05;;
58470;SDS011;44258;51.288;12.068;2022-10-16T11:03:41;2.33;;;1.45;;
58470;SDS011;44258;51.288;12.068;2022-10-16T11:06:20;3.20;;;1.25;;
58470;SDS011;44258;51.288;12.068;2022-10-16T11:08:52;2.67;;;1.30;;
58470;SDS011;44258;51.288;12.068;2022-10-16T11:11:25;3.58;;;1.52;;
58470;SDS011;44258;51.288;12.068;2022-10-16T11:13:59;4.03;;;1.20;;
58470;SDS011;44258;51.288;12.068;2022-10-16T11:16:31;2.05;;;1.20;;
58470;SDS011;44258;51.288;12.068;2022-10-16T11:19:03;2.00;;;1.38;;
58470;SDS011;44258;51.288;12.068;2022-10-16T11:21:42;1.55;;;1.00;;
58470;SDS011;44258;51.288;12.068;2022-10-16T11:24:15;2.60;;;1.17;;
58470;SDS011;44258;51.288;12.068;2022-10-16T11:26:46;1.45;;;0.98;;
58470;SDS011;44258;51.288;12.068;2022-10-16T11:29:17;2.30;;;1.17;;
58470;SDS011;44258;51.288;12.068;2022-10-16T11:31:48;2.28;;;1.30;;
58470;SDS011;44258;51.288;12.068;2022-10-16T11:34:22;1.92;;;1.15;;
58470;SDS011;44258;51.288;12.068;2022-10-16T11:36:57;3.05;;;1.25;;
58470;SDS011;44258;51.288;12.068;2022-10-16T11:39:28;2.22;;;1.10;;
58470;SDS011;44258;51.288;12.068;2022-10-16T11:41:58;1.77;;;0.90;;
58470;SDS011;44258;51.288;12.068;2022-10-16T11:44:35;1.73;;;0.98;;
58470;SDS011;44258;51.288;12.068;2022-10-16T11:47:12;1.58;;;0.98;;
58470;SDS011;44258;51.288;12.068;2022-10-16T11:49:52;1.52;;;0.90;;
58470;SDS011;44258;51.288;12.068;2022-10-16T11:52:28;1.52;;;1.08;;
58470;SDS011;44258;51.288;12.068;2022-10-16T11:55:01;1.23;;;0.93;;
58470;SDS011;44258;51.288;12.068;2022-10-16T11:57:35;2.20;;;0.90;;
58470;SDS011;44258;51.288;12.068;2022-10-16T12:00:08;1.20;;;0.70;;
58470;SDS011;44258;51.288;12.068;2022-10-16T12:02:47;2.75;;;1.00;;
58470;SDS011;44258;51.288;12.068;2022-10-16T12:05:23;1.65;;;0.90;;
58470;SDS011;44258;51.288;12.068;2022-10-16T12:08:02;1.98;;;1.02;;
58470;SDS011;44258;51.288;12.068;2022-10-16T12:13:02;1.05;;;0.77;;
58470;SDS011;44258;51.288;12.068;2022-10-16T12:15:30;1.20;;;0.68;;
58470;SDS011;44258;51.288;12.068;2022-10-16T12:17:58;0.98;;;0.70;;
58470;SDS011;44258;51.288;12.068;2022-10-16T12:20:26;1.25;;;0.77;;
58470;SDS011;44258;51.288;12.068;2022-10-16T12:22:56;1.45;;;0.70;;
58470;SDS011;44258;51.288;12.068;2022-10-16T12:25:26;1.65;;;0.90;;
58470;SDS011;44258;51.288;12.068;2022-10-16T12:27:56;1.73;;;0.65;;
58470;SDS011;44258;51.288;12.068;2022-10-16T12:30:26;2.60;;;0.88;;
58470;SDS011;44258;51.288;12.068;2022-10-16T12:32:54;1.02;;;0.63;;
58470;SDS011;44258;51.288;12.068;2022-10-16T12:35:23;0.75;;;0.60;;
58470;SDS011;44258;51.288;12.068;2022-10-16T12:37:53;1.80;;;1.00;;
58470;SDS011;44258;51.288;12.068;2022-10-16T12:40:26;1.10;;;0.90;;
58470;SDS011;44258;51.288;12.068;2022-10-16T12:42:55;1.25;;;0.73;;
58470;SDS011;44258;51.288;12.068;2022-10-16T12:45:24;1.83;;;1.00;;
58470;SDS011;44258;51.288;12.068;2022-10-16T12:47:56;0.90;;;0.60;;
58470;SDS011;44258;51.288;12.068;2022-10-16T12:50:26;2.03;;;0.98;;
58470;SDS011;44258;51.288;12.068;2022-10-16T12:52:55;2.63;;;0.85;;
58470;SDS011;44258;51.288;12.068;2022-10-16T12:55:22;1.23;;;0.68;;
58470;SDS011;44258;51.288;12.068;2022-10-16T12:57:57;2.75;;;0.90;;
58470;SDS011;44258;51.288;12.068;2022-10-16T13:00:34;1.23;;;0.88;;
58470;SDS011;44258;51.288;12.068;2022-10-16T13:03:23;1.35;;;0.98;;
58470;SDS011;44258;51.288;12.068;2022-10-16T13:06:03;1.85;;;1.10;;
58470;SDS011;44258;51.288;12.068;2022-10-16T13:08:46;2.15;;;1.10;;
58470;SDS011;44258;51.288;12.068;2022-10-16T13:11:27;1.50;;;0.98;;
58470;SDS011;44258;51.288;12.068;2022-10-16T13:14:13;1.40;;;1.00;;
58470;SDS011;44258;51.288;12.068;2022-10-16T13:16:55;1.80;;;0.70;;
58470;SDS011;44258;51.288;12.068;2022-10-16T13:19:34;1.88;;;0.60;;
58470;SDS011;44258;51.288;12.068;2022-10-16T13:22:11;0.73;;;0.70;;
58470;SDS011;44258;51.288;12.068;2022-10-16T13:24:50;2.15;;;0.75;;
58470;SDS011;44258;51.288;12.068;2022-10-16T13:27:33;1.23;;;0.80;;
58470;SDS011;44258;51.288;12.068;2022-10-16T13:30:13;0.70;;;0.57;;
58470;SDS011;44258;51.288;12.068;2022-10-16T13:32:44;1.25;;;0.75;;
58470;SDS011;44258;51.288;12.068;2022-10-16T13:35:21;1.63;;;0.90;;
58470;SDS011;44258;51.288;12.068;2022-10-16T13:38:03;1.52;;;0.80;;
58470;SDS011;44258;51.288;12.068;2022-10-16T13:40:48;1.25;;;0.70;;
58470;SDS011;44258;51.288;12.068;2022-10-16T13:43:19;1.13;;;0.80;;
58470;SDS011;44258;51.288;12.068;2022-10-16T13:45:57;0.93;;;0.70;;
58470;SDS011;44258;51.288;12.068;2022-10-16T13:48:25;1.77;;;0.82;;
58470;SDS011;44258;51.288;12.068;2022-10-16T13:51:02;1.10;;;0.73;;
58470;SDS011;44258;51.288;12.068;2022-10-16T13:53:31;1.50;;;0.95;;
58470;SDS011;44258;51.288;12.068;2022-10-16T13:56:01;2.92;;;0.88;;
58470;SDS011;44258;51.288;12.068;2022-10-16T13:58:29;0.77;;;0.52;;
58470;SDS011;44258;51.288;12.068;2022-10-16T14:00:58;1.13;;;1.00;;
58470;SDS011;44258;51.288;12.068;2022-10-16T14:03:27;1.05;;;0.75;;
58470;SDS011;44258;51.288;12.068;2022-10-16T14:05:55;2.70;;;0.70;;
58470;SDS011;44258;51.288;12.068;2022-10-16T14:08:24;0.90;;;0.70;;
58470;SDS011;44258;51.288;12.068;2022-10-16T14:10:54;2.58;;;1.17;;
58470;SDS011;44258;51.288;12.068;2022-10-16T14:13:26;2.03;;;1.20;;
58470;SDS011;44258;51.288;12.068;2022-10-16T14:18:29;2.88;;;1.00;;
58470;SDS011;44258;51.288;12.068;2022-10-16T14:21:02;1.60;;;0.98;;
58470;SDS011;44258;51.288;12.068;2022-10-16T14:23:30;1.63;;;0.82;;
58470;SDS011;44258;51.288;12.068;2022-10-16T14:26:15;1.27;;;0.90;;
58470;SDS011;44258;51.288;12.068;2022-10-16T14:28:44;1.00;;;0.82;;
58470;SDS011;44258;51.288;12.068;2022-10-16T14:31:25;1.40;;;0.82;;
58470;SDS011;44258;51.288;12.068;2022-10-16T14:33:53;1.00;;;0.70;;
58470;SDS011;44258;51.288;12.068;2022-10-16T14:36:20;0.90;;;0.60;;
58470;SDS011;44258;51.288;12.068;2022-10-16T14:38:49;3.10;;;1.10;;
58470;SDS011;44258;51.288;12.068;2022-10-16T14:41:21;1.45;;;0.90;;
58470;SDS011;44258;51.288;12.068;2022-10-16T14:43:49;1.48;;;0.95;;
58470;SDS011;44258;51.288;12.068;2022-10-16T14:46:19;1.65;;;0.90;;
58470;SDS011;44258;51.288;12.068;2022-10-16T14:48:53;1.73;;;1.10;;
58470;SDS011;44258;51.288;12.068;2022-10-16T14:51:24;3.40;;;1.20;;
58470;SDS011;44258;51.288;12.068;2022-10-16T14:53:51;1.25;;;0.80;;
58470;SDS011;44258;51.288;12.068;2022-10-16T14:56:18;3.28;;;1.13;;
58470;SDS011;44258;51.288;12.068;2022-10-16T14:58:47;2.20;;;0.90;;
58470;SDS011;44258;51.288;12.068;2022-10-16T15:01:15;1.30;;;0.90;;
58470;SDS011;44258;51.288;12.068;2022-10-16T15:03:42;1.63;;;0.93;;
58470;SDS011;44258;51.288;12.068;2022-10-16T15:06:10;1.38;;;1.00;;
58470;SDS011;44258;51.288;12.068;2022-10-16T15:08:37;1.63;;;0.90;;
58470;SDS011;44258;51.288;12.068;2022-10-16T15:11:04;1.90;;;1.00;;